N1345F KTEX-KPUB
Flight info
| Callsign | N1345F |
|---|---|
| Flight time | 0h 38m |
| Altitude | 33000 |
| Route | ETL |
| Aircraft | C750/M-SBDE3FGHRWXY/S |
Departure
| Time | 2026-04-21 17:30 |
|---|---|
| Airport | Telluride Regional Airport (KTEX) |
Arrival
| Time | 2026-04-21 18:09 |
|---|---|
| Airport | Pueblo Memorial Airport (KPUB) |
| Time | Latitude | Longitude | Altitude | Speed | Heading |
|---|---|---|---|---|---|
| 2026-04-21 17:06 | 37.95393 | -107.90164 | 9054 ft | 0 kts | 283° |
| 2026-04-21 17:24 | 37.95394 | -107.90167 | 9054 ft | 1 kts | 283° |
| 2026-04-21 17:24 | 37.95395 | -107.90188 | 9054 ft | 4 kts | 265° |
| 2026-04-21 17:25 | 37.95381 | -107.90221 | 9055 ft | 3 kts | 234° |
| 2026-04-21 17:25 | 37.95369 | -107.90227 | 9054 ft | 2 kts | 179° |
| 2026-04-21 17:25 | 37.95352 | -107.90203 | 9054 ft | 6 kts | 108° |
| 2026-04-21 17:25 | 37.95344 | -107.90155 | 9054 ft | 6 kts | 102° |
| 2026-04-21 17:26 | 37.95321 | -107.90119 | 9054 ft | 6 kts | 164° |
| 2026-04-21 17:26 | 37.95270 | -107.90134 | 9054 ft | 9 kts | 198° |
| 2026-04-21 17:26 | 37.95242 | -107.90212 | 9050 ft | 12 kts | 287° |
| 2026-04-21 17:26 | 37.95267 | -107.90321 | 9045 ft | 13 kts | 283° |
| 2026-04-21 17:27 | 37.95288 | -107.90433 | 9042 ft | 13 kts | 285° |
| 2026-04-21 17:27 | 37.95316 | -107.90561 | 9035 ft | 18 kts | 285° |
| 2026-04-21 17:27 | 37.95349 | -107.90720 | 9027 ft | 19 kts | 285° |
| 2026-04-21 17:27 | 37.95383 | -107.90882 | 9023 ft | 18 kts | 285° |
| 2026-04-21 17:28 | 37.95423 | -107.91069 | 9024 ft | 27 kts | 285° |
| 2026-04-21 17:28 | 37.95471 | -107.91291 | 9022 ft | 24 kts | 285° |
| 2026-04-21 17:28 | 37.95511 | -107.91481 | 9027 ft | 20 kts | 285° |
| 2026-04-21 17:28 | 37.95542 | -107.91619 | 9034 ft | 12 kts | 289° |
| 2026-04-21 17:29 | 37.95571 | -107.91738 | 9038 ft | 19 kts | 285° |
| 2026-04-21 17:29 | 37.95610 | -107.91912 | 9041 ft | 13 kts | 285° |
| 2026-04-21 17:29 | 37.95623 | -107.91970 | 9042 ft | 6 kts | 282° |
| 2026-04-21 17:29 | 37.95619 | -107.91991 | 9042 ft | 2 kts | 190° |
| 2026-04-21 17:30 | 37.95608 | -107.91953 | 9041 ft | 10 kts | 102° |
| 2026-04-21 17:30 | 37.95529 | -107.91575 | 9035 ft | 96 kts | 105° |
| 2026-04-21 17:30 | 37.95286 | -107.90419 | 9081 ft | 159 kts | 106° |
| 2026-04-21 17:30 | 37.94974 | -107.89040 | 9789 ft | 166 kts | 109° |
| 2026-04-21 17:31 | 37.94612 | -107.87645 | 10692 ft | 165 kts | 111° |
| 2026-04-21 17:31 | 37.94175 | -107.86283 | 11196 ft | 165 kts | 123° |
| 2026-04-21 17:31 | 37.93411 | -107.85236 | 11748 ft | 163 kts | 150° |
| 2026-04-21 17:31 | 37.92509 | -107.84291 | 12048 ft | 191 kts | 122° |
| 2026-04-21 17:32 | 37.92050 | -107.82569 | 12389 ft | 219 kts | 114° |
| 2026-04-21 17:32 | 37.90975 | -107.81188 | 12684 ft | 223 kts | 163° |
| 2026-04-21 17:32 | 37.89555 | -107.81361 | 14034 ft | 209 kts | 206° |
| 2026-04-21 17:32 | 37.88364 | -107.82556 | 14499 ft | 231 kts | 224° |
| 2026-04-21 17:33 | 37.87426 | -107.84352 | 14672 ft | 266 kts | 251° |
| 2026-04-21 17:33 | 37.87432 | -107.86810 | 14829 ft | 301 kts | 284° |
| 2026-04-21 17:33 | 37.88474 | -107.89263 | 15030 ft | 331 kts | 303° |
| 2026-04-21 17:33 | 37.89869 | -107.91715 | 15265 ft | 354 kts | 303° |
| 2026-04-21 17:34 | 37.91220 | -107.94433 | 15396 ft | 376 kts | 297° |
| 2026-04-21 17:34 | 37.92364 | -107.97412 | 15947 ft | 381 kts | 292° |
| 2026-04-21 17:34 | 37.93499 | -108.00458 | 16701 ft | 385 kts | 295° |
| 2026-04-21 17:34 | 37.95133 | -108.03191 | 17344 ft | 394 kts | 314° |
| 2026-04-21 17:35 | 37.97340 | -108.05263 | 17863 ft | 399 kts | 330° |
| 2026-04-21 17:35 | 37.99975 | -108.06460 | 18520 ft | 407 kts | 347° |
| 2026-04-21 17:35 | 38.02807 | -108.06624 | 19218 ft | 410 kts | 5° |
| 2026-04-21 17:35 | 38.05576 | -108.05720 | 19916 ft | 414 kts | 23° |
| 2026-04-21 17:36 | 38.08027 | -108.03794 | 20578 ft | 418 kts | 41° |
| 2026-04-21 17:36 | 38.09920 | -108.01005 | 21274 ft | 420 kts | 58° |
| 2026-04-21 17:36 | 38.11066 | -107.97602 | 21956 ft | 422 kts | 76° |
| 2026-04-21 17:36 | 38.11473 | -107.93960 | 22838 ft | 424 kts | 86° |
| 2026-04-21 17:37 | 38.11704 | -107.90202 | 23316 ft | 428 kts | 88° |
| 2026-04-21 17:37 | 38.11914 | -107.86401 | 23918 ft | 434 kts | 88° |
| 2026-04-21 17:37 | 38.12159 | -107.82571 | 24699 ft | 437 kts | 87° |
| 2026-04-21 17:37 | 38.12423 | -107.78708 | 25253 ft | 441 kts | 87° |
| 2026-04-21 17:38 | 38.12670 | -107.74809 | 25628 ft | 444 kts | 87° |
| 2026-04-21 17:38 | 38.12904 | -107.70889 | 26259 ft | 447 kts | 87° |
| 2026-04-21 17:38 | 38.13148 | -107.66937 | 26793 ft | 451 kts | 87° |
| 2026-04-21 17:38 | 38.13401 | -107.62956 | 27330 ft | 455 kts | 87° |
| 2026-04-21 17:39 | 38.13651 | -107.58941 | 27909 ft | 458 kts | 87° |
| 2026-04-21 17:39 | 38.13896 | -107.54888 | 28453 ft | 462 kts | 87° |
| 2026-04-21 17:39 | 38.14143 | -107.50806 | 28993 ft | 466 kts | 87° |
| 2026-04-21 17:39 | 38.14395 | -107.46686 | 29548 ft | 469 kts | 87° |
| 2026-04-21 17:40 | 38.14647 | -107.42530 | 30064 ft | 473 kts | 87° |
| 2026-04-21 17:40 | 38.14897 | -107.38333 | 30521 ft | 477 kts | 87° |
| 2026-04-21 17:40 | 38.15147 | -107.34115 | 30905 ft | 482 kts | 87° |
| 2026-04-21 17:40 | 38.15396 | -107.29915 | 31468 ft | 481 kts | 87° |
| 2026-04-21 17:41 | 38.15647 | -107.25681 | 32147 ft | 479 kts | 87° |
| 2026-04-21 17:41 | 38.15893 | -107.21466 | 32774 ft | 474 kts | 87° |
| 2026-04-21 17:41 | 38.16134 | -107.17324 | 33163 ft | 474 kts | 87° |
| 2026-04-21 17:41 | 38.16376 | -107.13083 | 33155 ft | 487 kts | 87° |
| 2026-04-21 17:42 | 38.16515 | -107.10664 | 33157 ft | 494 kts | 87° |
| 2026-04-21 17:42 | 38.16906 | -107.03978 | 33154 ft | 488 kts | 87° |
| 2026-04-21 17:43 | 38.17142 | -106.99788 | 33137 ft | 468 kts | 87° |
| 2026-04-21 17:43 | 38.17367 | -106.95654 | 33138 ft | 474 kts | 87° |
| 2026-04-21 17:43 | 38.17599 | -106.91418 | 33143 ft | 487 kts | 87° |
| 2026-04-21 17:43 | 38.17676 | -106.90059 | 33142 ft | 491 kts | 87° |
| 2026-04-21 17:44 | 38.18169 | -106.81366 | 33147 ft | 498 kts | 87° |
| 2026-04-21 17:44 | 38.18636 | -106.72576 | 33143 ft | 499 kts | 87° |
| 2026-04-21 17:45 | 38.19115 | -106.63786 | 33133 ft | 497 kts | 87° |
| 2026-04-21 17:45 | 38.19575 | -106.55009 | 33116 ft | 498 kts | 87° |
| 2026-04-21 17:46 | 38.20036 | -106.46220 | 33097 ft | 498 kts | 87° |
| 2026-04-21 17:46 | 38.20487 | -106.37433 | 33101 ft | 498 kts | 87° |
| 2026-04-21 17:47 | 38.20933 | -106.28661 | 33077 ft | 497 kts | 87° |
| 2026-04-21 17:47 | 38.21371 | -106.19889 | 33060 ft | 496 kts | 87° |
| 2026-04-21 17:48 | 38.21802 | -106.11115 | 33067 ft | 496 kts | 87° |
| 2026-04-21 17:48 | 38.22013 | -106.06794 | 32526 ft | 483 kts | 87° |
| 2026-04-21 17:48 | 38.22218 | -106.02565 | 31884 ft | 475 kts | 88° |
| 2026-04-21 17:49 | 38.22414 | -105.98426 | 31272 ft | 475 kts | 87° |
| 2026-04-21 17:49 | 38.22614 | -105.94220 | 30643 ft | 478 kts | 86° |
| 2026-04-21 17:49 | 38.22814 | -105.89999 | 29959 ft | 478 kts | 86° |
| 2026-04-21 17:49 | 38.23012 | -105.85808 | 29312 ft | 470 kts | 86° |
| 2026-04-21 17:50 | 38.23204 | -105.81677 | 28695 ft | 467 kts | 87° |
| 2026-04-21 17:50 | 38.23393 | -105.77551 | 28069 ft | 464 kts | 87° |
| 2026-04-21 17:50 | 38.23579 | -105.73478 | 27469 ft | 460 kts | 87° |
| 2026-04-21 17:50 | 38.23764 | -105.69417 | 26868 ft | 458 kts | 87° |
| 2026-04-21 17:51 | 38.23946 | -105.65397 | 26266 ft | 453 kts | 87° |
| 2026-04-21 17:51 | 38.24124 | -105.61391 | 25656 ft | 451 kts | 87° |
| 2026-04-21 17:51 | 38.24300 | -105.57440 | 25065 ft | 445 kts | 87° |
| 2026-04-21 17:51 | 38.24473 | -105.53519 | 24481 ft | 443 kts | 87° |
| 2026-04-21 17:52 | 38.24641 | -105.49674 | 23888 ft | 438 kts | 87° |
| 2026-04-21 17:52 | 38.24809 | -105.45817 | 23276 ft | 434 kts | 87° |
| 2026-04-21 17:52 | 38.24974 | -105.41998 | 22699 ft | 430 kts | 87° |
| 2026-04-21 17:52 | 38.25135 | -105.38213 | 22133 ft | 425 kts | 87° |
| 2026-04-21 17:53 | 38.25294 | -105.34463 | 21552 ft | 424 kts | 88° |
| 2026-04-21 17:53 | 38.25451 | -105.30751 | 20997 ft | 417 kts | 88° |
| 2026-04-21 17:53 | 38.25604 | -105.27080 | 20453 ft | 413 kts | 88° |
| 2026-04-21 17:53 | 38.25755 | -105.23444 | 19903 ft | 408 kts | 88° |
| 2026-04-21 17:54 | 38.25902 | -105.19895 | 19357 ft | 404 kts | 88° |
| 2026-04-21 17:54 | 38.26047 | -105.16326 | 18822 ft | 402 kts | 88° |
| 2026-04-21 17:54 | 38.26191 | -105.12795 | 18293 ft | 397 kts | 88° |
| 2026-04-21 17:54 | 38.26332 | -105.09290 | 17735 ft | 395 kts | 88° |
| 2026-04-21 17:55 | 38.26471 | -105.05811 | 17192 ft | 392 kts | 88° |
| 2026-04-21 17:55 | 38.26608 | -105.02359 | 16682 ft | 390 kts | 88° |
| 2026-04-21 17:55 | 38.26743 | -104.98918 | 16170 ft | 389 kts | 88° |
| 2026-04-21 17:55 | 38.26877 | -104.95500 | 15658 ft | 384 kts | 88° |
| 2026-04-21 17:56 | 38.27009 | -104.92101 | 15149 ft | 383 kts | 88° |
| 2026-04-21 17:56 | 38.27139 | -104.88747 | 14660 ft | 377 kts | 88° |
| 2026-04-21 17:56 | 38.27266 | -104.85425 | 14182 ft | 375 kts | 88° |
| 2026-04-21 17:56 | 38.27391 | -104.82120 | 13699 ft | 373 kts | 88° |
| 2026-04-21 17:57 | 38.27514 | -104.78839 | 13202 ft | 369 kts | 88° |
| 2026-04-21 17:57 | 38.27636 | -104.75583 | 12728 ft | 367 kts | 88° |
| 2026-04-21 17:57 | 38.27755 | -104.72395 | 12272 ft | 364 kts | 88° |
| 2026-04-21 17:57 | 38.27873 | -104.69189 | 11809 ft | 362 kts | 88° |
| 2026-04-21 17:58 | 38.27990 | -104.66001 | 11353 ft | 355 kts | 88° |
| 2026-04-21 17:58 | 38.28100 | -104.62970 | 10912 ft | 331 kts | 88° |
| 2026-04-21 17:58 | 38.28204 | -104.60120 | 10488 ft | 312 kts | 88° |
| 2026-04-21 17:58 | 38.28298 | -104.57427 | 10093 ft | 297 kts | 89° |
| 2026-04-21 17:59 | 38.28384 | -104.54836 | 9699 ft | 290 kts | 88° |
| 2026-04-21 17:59 | 38.28475 | -104.52288 | 9308 ft | 287 kts | 88° |
| 2026-04-21 17:59 | 38.28568 | -104.49780 | 8930 ft | 287 kts | 88° |
| 2026-04-21 17:59 | 38.28658 | -104.47244 | 8553 ft | 286 kts | 88° |
| 2026-04-21 18:00 | 38.28716 | -104.45578 | 8319 ft | 285 kts | 88° |
| 2026-04-21 18:00 | 38.28831 | -104.42209 | 7798 ft | 283 kts | 87° |
| 2026-04-21 18:00 | 38.28918 | -104.39715 | 7420 ft | 280 kts | 87° |
| 2026-04-21 18:00 | 38.29002 | -104.37251 | 7045 ft | 279 kts | 87° |
| 2026-04-21 18:01 | 38.29058 | -104.35604 | 6548 ft | 281 kts | 87° |
| 2026-04-21 18:01 | 38.29245 | -104.32364 | 6395 ft | 268 kts | 86° |
| 2026-04-21 18:01 | 38.29354 | -104.30020 | 6351 ft | 273 kts | 77° |
| 2026-04-21 18:01 | 38.30294 | -104.27974 | 6324 ft | 273 kts | 43° |
| 2026-04-21 18:02 | 38.31382 | -104.27116 | 6357 ft | 272 kts | 26° |
| 2026-04-21 18:02 | 38.33187 | -104.26257 | 6429 ft | 281 kts | 20° |
| 2026-04-21 18:02 | 38.34995 | -104.25388 | 6404 ft | 276 kts | 28° |
| 2026-04-21 18:02 | 38.36453 | -104.23835 | 6364 ft | 278 kts | 55° |
| 2026-04-21 18:03 | 38.37008 | -104.21533 | 6377 ft | 273 kts | 88° |
| 2026-04-21 18:03 | 38.36629 | -104.19200 | 6397 ft | 277 kts | 113° |
| 2026-04-21 18:03 | 38.35413 | -104.17326 | 6399 ft | 279 kts | 142° |
| 2026-04-21 18:03 | 38.33618 | -104.16415 | 6392 ft | 282 kts | 170° |
| 2026-04-21 18:04 | 38.31688 | -104.16744 | 6393 ft | 284 kts | 200° |
| 2026-04-21 18:04 | 38.30126 | -104.18265 | 6386 ft | 287 kts | 230° |
| 2026-04-21 18:04 | 38.29371 | -104.20604 | 6403 ft | 287 kts | 260° |
| 2026-04-21 18:04 | 38.29332 | -104.23107 | 6423 ft | 283 kts | 274° |
| 2026-04-21 18:05 | 38.29333 | -104.25463 | 6386 ft | 235 kts | 269° |
| 2026-04-21 18:05 | 38.29265 | -104.27470 | 6384 ft | 228 kts | 269° |
| 2026-04-21 18:05 | 38.29214 | -104.29507 | 6384 ft | 231 kts | 269° |
| 2026-04-21 18:05 | 38.29169 | -104.31559 | 6392 ft | 233 kts | 269° |
| 2026-04-21 18:06 | 38.29124 | -104.33590 | 6398 ft | 223 kts | 269° |
| 2026-04-21 18:06 | 38.29080 | -104.35412 | 6367 ft | 199 kts | 269° |
| 2026-04-21 18:06 | 38.29040 | -104.37127 | 6066 ft | 180 kts | 270° |
| 2026-04-21 18:06 | 38.29004 | -104.38609 | 5829 ft | 158 kts | 269° |
| 2026-04-21 18:07 | 38.28972 | -104.39953 | 5641 ft | 149 kts | 269° |
| 2026-04-21 18:07 | 38.28941 | -104.41275 | 5494 ft | 152 kts | 269° |
| 2026-04-21 18:07 | 38.28910 | -104.42602 | 5333 ft | 151 kts | 269° |
| 2026-04-21 18:07 | 38.28879 | -104.43933 | 5182 ft | 150 kts | 269° |
| 2026-04-21 18:08 | 38.28846 | -104.45254 | 5017 ft | 149 kts | 268° |
| 2026-04-21 18:08 | 38.28808 | -104.46586 | 4779 ft | 152 kts | 269° |
| 2026-04-21 18:08 | 38.28787 | -104.47901 | 4658 ft | 142 kts | 269° |
| 2026-04-21 18:08 | 38.28759 | -104.49049 | 4670 ft | 110 kts | 269° |
| 2026-04-21 18:09 | 38.28742 | -104.49781 | 4681 ft | 40 kts | 268° |
| 2026-04-21 18:09 | 38.28722 | -104.49896 | 4680 ft | 5 kts | 166° |
| 2026-04-21 18:09 | 38.28689 | -104.49822 | 4682 ft | 9 kts | 116° |
| 2026-04-21 18:09 | 38.28657 | -104.49747 | 4679 ft | 10 kts | 121° |
| 2026-04-21 18:10 | 38.28625 | -104.49713 | 4674 ft | 6 kts | 162° |
| 2026-04-21 18:10 | 38.28572 | -104.49707 | 4675 ft | 5 kts | 178° |
| 2026-04-21 18:10 | 38.28533 | -104.49705 | 4674 ft | 6 kts | 178° |
| 2026-04-21 18:10 | 38.28485 | -104.49703 | 4672 ft | 8 kts | 178° |
| 2026-04-21 18:11 | 38.28426 | -104.49700 | 4668 ft | 9 kts | 178° |
| 2026-04-21 18:11 | 38.28369 | -104.49715 | 4666 ft | 8 kts | 210° |
| 2026-04-21 18:11 | 38.28342 | -104.49772 | 4668 ft | 6 kts | 270° |
| 2026-04-21 18:11 | 38.28342 | -104.49801 | 4669 ft | 0 kts | 268° |